createdAt,value
2023-04-27T00:01:43.464Z,6.74
2023-04-27T00:04:10.366Z,6.72
2023-04-27T00:06:37.280Z,6.72
2023-04-27T00:09:04.687Z,6.71
2023-04-27T00:11:31.803Z,6.69
2023-04-27T00:13:58.760Z,6.67
2023-04-27T00:16:25.844Z,6.65
2023-04-27T00:18:52.682Z,6.64
2023-04-27T00:21:19.897Z,6.62
2023-04-27T00:23:47.029Z,6.61
2023-04-27T00:26:13.967Z,6.59
2023-04-27T00:28:42.914Z,6.58
2023-04-27T00:31:09.859Z,6.62
2023-04-27T00:33:36.983Z,6.71
2023-04-27T00:36:04.048Z,6.74
2023-04-27T00:38:30.930Z,6.74
2023-04-27T00:41:05.776Z,6.71
2023-04-27T00:43:32.917Z,6.67
2023-04-27T00:45:59.879Z,6.63
2023-04-27T00:48:26.792Z,6.59
2023-04-27T00:50:53.632Z,6.54
2023-04-27T00:53:20.865Z,6.50
2023-04-27T00:55:49.476Z,6.44
2023-04-27T00:58:16.426Z,6.38
2023-04-27T01:00:43.241Z,6.32
2023-04-27T01:03:10.270Z,6.26
2023-04-27T01:05:37.513Z,6.18
2023-04-27T01:08:05.277Z,6.12
2023-04-27T01:10:32.194Z,6.06
2023-04-27T01:12:59.252Z,6.01
2023-04-27T01:15:26.148Z,5.96
2023-04-27T01:18:02.641Z,5.95
2023-04-27T01:20:30.531Z,6.00
2023-04-27T01:22:57.707Z,6.01
2023-04-27T01:25:24.895Z,5.99
2023-04-27T01:27:51.843Z,5.96
2023-04-27T01:30:18.850Z,5.92
2023-04-27T01:32:45.972Z,5.87
2023-04-27T01:35:13.002Z,5.82
2023-04-27T01:37:39.848Z,5.76
2023-04-27T01:40:07.455Z,5.68
2023-04-27T01:42:34.340Z,5.62
2023-04-27T01:45:01.274Z,5.55
2023-04-27T01:47:28.244Z,5.47
2023-04-27T01:49:55.163Z,5.42
2023-04-27T01:52:22.037Z,5.37
2023-04-27T01:54:49.091Z,5.32
2023-04-27T01:57:16.384Z,5.26
2023-04-27T01:59:43.257Z,5.19
2023-04-27T02:02:10.237Z,5.14
2023-04-27T02:04:37.290Z,5.11
2023-04-27T02:07:04.265Z,5.15
2023-04-27T02:09:31.226Z,5.23
2023-04-27T02:11:58.075Z,5.26
2023-04-27T02:14:25.970Z,5.27
2023-04-27T02:16:52.896Z,5.25
2023-04-27T02:21:30.776Z,5.25
2023-04-27T02:23:57.680Z,5.18
2023-04-27T02:26:29.463Z,5.13
2023-04-27T02:28:57.263Z,5.06
2023-04-27T02:31:24.954Z,4.99
2023-04-27T02:33:51.877Z,4.94
2023-04-27T02:36:18.761Z,4.89
2023-04-27T02:38:46.086Z,4.85
2023-04-27T02:41:12.946Z,4.82
2023-04-27T02:43:39.857Z,4.78
2023-04-27T02:46:06.847Z,4.77
2023-04-27T02:48:33.832Z,4.77
2023-04-27T02:51:04.186Z,4.77
2023-04-27T02:53:31.199Z,4.77
2023-04-27T02:55:58.558Z,4.77
2023-04-27T02:58:26.369Z,4.77
2023-04-27T03:00:56.961Z,4.77
2023-04-27T03:03:24.230Z,4.76
2023-04-27T03:05:51.231Z,4.77
2023-04-27T03:08:18.678Z,4.79
2023-04-27T03:10:45.589Z,4.88
2023-04-27T03:13:12.420Z,5.02
2023-04-27T03:15:39.293Z,5.11
2023-04-27T03:18:06.328Z,5.15
2023-04-27T03:20:33.987Z,5.18
2023-04-27T03:23:01.491Z,5.20
2023-04-27T03:25:28.329Z,5.21
2023-04-27T03:27:55.253Z,5.21
2023-04-27T03:30:23.154Z,5.21
2023-04-27T03:32:50.070Z,5.20
2023-04-27T03:35:20.400Z,5.18
2023-04-27T03:37:47.359Z,5.15
2023-04-27T03:47:52.974Z,5.08
2023-04-27T03:50:19.987Z,5.07
2023-04-27T03:52:46.961Z,5.06
2023-04-27T03:55:13.909Z,5.05
2023-04-27T03:57:41.744Z,5.03
2023-04-27T04:00:11.845Z,5.01
2023-04-27T04:02:42.335Z,5.00
2023-04-27T04:05:09.532Z,4.98
2023-04-27T04:07:36.512Z,4.95
2023-04-27T04:10:04.121Z,4.93
2023-04-27T04:12:31.333Z,4.92
2023-04-27T04:14:58.209Z,4.89
2023-04-27T04:17:25.313Z,4.90
2023-04-27T04:19:52.634Z,4.90
2023-04-27T04:22:19.523Z,4.90
2023-04-27T04:24:46.549Z,4.90
2023-04-27T04:27:13.571Z,4.90
2023-04-27T04:29:41.301Z,4.91
2023-04-27T04:32:09.630Z,4.93
2023-04-27T04:34:37.293Z,4.95
2023-04-27T04:37:05.744Z,4.96
2023-04-27T04:39:33.317Z,4.97
2023-04-27T04:42:00.257Z,5.00
2023-04-27T04:44:28.505Z,5.05
2023-04-27T04:46:55.605Z,5.11
2023-04-27T04:49:26.326Z,5.22
2023-04-27T04:51:53.467Z,5.39
2023-04-27T04:54:20.417Z,5.51
2023-04-27T04:56:48.075Z,5.59
2023-04-27T04:59:15.093Z,5.66
2023-04-27T05:01:42.121Z,5.74
2023-04-27T05:04:15.951Z,5.80
2023-04-27T05:06:44.249Z,5.85
2023-04-27T05:09:13.624Z,5.87
2023-04-27T05:11:40.908Z,5.89
2023-04-27T05:14:07.814Z,5.92
2023-04-27T05:16:34.782Z,5.92
2023-04-27T05:19:01.709Z,5.93
2023-04-27T05:21:28.633Z,5.94
2023-04-27T05:24:00.380Z,5.97
2023-04-27T05:26:27.326Z,6.00
2023-04-27T05:28:54.140Z,6.03
2023-04-27T05:31:21.036Z,6.05
2023-04-27T05:33:47.948Z,6.08
2023-04-27T05:36:14.917Z,6.12
2023-04-27T05:38:41.882Z,6.16
2023-04-27T05:41:08.824Z,6.19
2023-04-27T05:43:38.016Z,6.21
2023-04-27T05:46:05.187Z,6.22
2023-04-27T05:48:32.078Z,6.26
2023-04-27T05:51:01.383Z,6.30
2023-04-27T05:53:28.822Z,6.36
2023-04-27T05:55:57.146Z,6.41
2023-04-27T05:58:24.150Z,6.45
2023-04-27T06:00:51.190Z,6.48
2023-04-27T06:03:18.190Z,6.50
2023-04-27T06:05:45.475Z,6.55
2023-04-27T06:08:12.635Z,6.60
2023-04-27T06:10:39.674Z,6.66
2023-04-27T06:13:06.576Z,6.71
2023-04-27T06:15:33.540Z,6.76
2023-04-27T06:18:00.499Z,6.80
2023-04-27T06:20:27.604Z,6.84
2023-04-27T06:22:54.421Z,6.89
2023-04-27T06:25:24.410Z,6.93
2023-04-27T06:27:52.971Z,6.96
2023-04-27T06:30:22.803Z,7.00
2023-04-27T06:32:50.045Z,7.03
2023-04-27T06:35:17.083Z,7.03
2023-04-27T06:37:44.816Z,7.06
2023-04-27T06:40:11.956Z,7.10
2023-04-27T06:42:39.030Z,7.14
2023-04-27T06:45:07.376Z,7.17
2023-04-27T06:47:34.331Z,7.21
2023-04-27T06:50:01.396Z,7.27
2023-04-27T06:52:28.312Z,7.32
2023-04-27T06:54:55.152Z,7.36
2023-04-27T06:57:22.508Z,7.37
2023-04-27T06:59:52.089Z,7.39
2023-04-27T07:02:19.019Z,7.37
2023-04-27T07:04:46.118Z,7.35
2023-04-27T07:07:13.480Z,7.35
2023-04-27T07:09:40.395Z,7.35
2023-04-27T07:12:07.389Z,7.36
2023-04-27T07:14:34.454Z,7.40
2023-04-27T07:17:01.570Z,7.42
2023-04-27T07:19:28.839Z,7.44
2023-04-27T07:21:56.190Z,7.48
2023-04-27T07:24:23.005Z,7.50
2023-04-27T07:26:50.469Z,7.53
2023-04-27T07:29:26.458Z,7.56
2023-04-27T07:31:55.919Z,7.61
2023-04-27T07:34:24.030Z,7.64
2023-04-27T07:36:56.649Z,7.66
2023-04-27T07:39:24.049Z,7.69
2023-04-27T07:41:53.028Z,7.74
2023-04-27T07:44:19.876Z,7.78
2023-04-27T07:46:49.121Z,7.83
2023-04-27T07:49:18.385Z,7.88
2023-04-27T07:51:45.182Z,7.92
2023-04-27T07:54:12.085Z,7.96
2023-04-27T07:56:41.776Z,8.00
2023-04-27T07:59:08.847Z,8.05
2023-04-27T08:01:36.465Z,8.13
2023-04-27T08:04:03.665Z,8.19
2023-04-27T08:06:31.322Z,8.25
2023-04-27T08:09:00.773Z,8.29
2023-04-27T08:11:27.809Z,8.29
2023-04-27T08:13:54.706Z,8.21
2023-04-27T08:16:21.811Z,8.19
2023-04-27T08:18:49.717Z,8.19
2023-04-27T08:21:16.597Z,8.18
2023-04-27T08:23:43.943Z,8.22
2023-04-27T08:26:14.789Z,8.30
2023-04-27T08:28:41.584Z,8.37
2023-04-27T08:31:08.492Z,8.36
2023-04-27T08:33:36.126Z,8.31
2023-04-27T08:36:03.140Z,8.34
2023-04-27T08:38:30.177Z,8.40
2023-04-27T08:41:02.684Z,8.47
2023-04-27T08:43:35.999Z,8.53
2023-04-27T08:46:03.273Z,8.56
2023-04-27T08:48:31.055Z,8.57
2023-04-27T08:50:58.318Z,8.58
2023-04-27T08:53:25.539Z,8.59
2023-04-27T08:55:54.630Z,8.60
2023-04-27T08:58:22.046Z,8.63
2023-04-27T09:00:50.777Z,8.62
2023-04-27T09:03:23.940Z,8.59
2023-04-27T09:06:03.431Z,8.53
2023-04-27T09:08:45.186Z,8.44
2023-04-27T09:11:12.709Z,8.36
2023-04-27T09:13:40.212Z,8.29
2023-04-27T09:16:07.250Z,8.26
2023-04-27T09:18:38.131Z,8.24
2023-04-27T09:21:05.248Z,8.22
2023-04-27T09:23:36.889Z,8.23
2023-04-27T09:26:09.832Z,8.27
2023-04-27T09:28:40.485Z,8.31
2023-04-27T09:31:09.590Z,8.34
2023-04-27T09:33:37.343Z,8.35
2023-04-27T09:36:05.569Z,8.37
2023-04-27T09:38:33.278Z,8.39
2023-04-27T09:41:00.477Z,8.40
2023-04-27T09:43:28.907Z,8.37
2023-04-27T09:45:56.058Z,8.36
2023-04-27T09:48:23.375Z,8.37
2023-04-27T09:50:51.217Z,8.39
2023-04-27T09:53:24.049Z,8.42
2023-04-27T09:56:21.244Z,8.45
2023-04-27T09:59:46.885Z,8.46
2023-04-27T10:02:24.758Z,8.48
2023-04-27T10:05:28.811Z,8.46
2023-04-27T10:07:55.925Z,8.46
2023-04-27T10:10:22.916Z,8.50
2023-04-27T10:13:01.619Z,8.53
2023-04-27T10:15:29.120Z,8.55
2023-04-27T10:17:59.272Z,8.56
2023-04-27T10:20:30.568Z,8.60
2023-04-27T10:22:58.101Z,8.65
2023-04-27T10:25:29.578Z,8.68
2023-04-27T10:28:02.001Z,8.70
2023-04-27T10:30:44.672Z,8.71
2023-04-27T10:33:19.809Z,8.69
2023-04-27T10:35:55.707Z,8.66
2023-04-27T10:38:27.858Z,8.64
2023-04-27T10:40:57.196Z,8.63
2023-04-27T10:43:25.748Z,8.63
2023-04-27T10:45:52.620Z,8.63
2023-04-27T10:48:19.538Z,8.66
2023-04-27T10:50:46.965Z,8.67
2023-04-27T10:53:15.051Z,8.66
2023-04-27T10:55:42.011Z,8.65
2023-04-27T10:58:09.031Z,8.60
2023-04-27T11:00:44.866Z,8.52
2023-04-27T11:03:17.540Z,8.49
2023-04-27T11:05:45.465Z,8.47
2023-04-27T11:08:14.264Z,8.47
2023-04-27T11:10:46.460Z,8.58
2023-04-27T11:13:15.007Z,8.81
2023-04-27T11:15:49.618Z,9.09
2023-04-27T11:18:20.439Z,9.35
2023-04-27T11:20:52.508Z,9.52
2023-04-27T11:23:24.591Z,9.56
2023-04-27T11:25:52.457Z,9.53
2023-04-27T11:28:19.990Z,9.39
2023-04-27T11:30:47.754Z,9.20
2023-04-27T11:33:14.606Z,9.01
2023-04-27T11:35:42.675Z,8.89
2023-04-27T11:38:17.027Z,8.80
2023-04-27T11:40:44.540Z,8.73
2023-04-27T11:43:14.609Z,8.71
2023-04-27T11:45:47.523Z,8.71
2023-04-27T11:48:17.413Z,8.71
2023-04-27T11:50:50.174Z,8.73
2023-04-27T11:53:18.866Z,8.76
2023-04-27T11:55:52.173Z,8.82
2023-04-27T11:58:19.027Z,8.89
2023-04-27T12:00:47.632Z,8.93
2023-04-27T12:03:14.803Z,8.98
2023-04-27T12:05:50.093Z,9.06
2023-04-27T12:08:17.611Z,9.12
2023-04-27T12:10:44.848Z,9.20
2023-04-27T12:13:12.517Z,9.27
2023-04-27T12:15:42.911Z,9.33
2023-04-27T12:18:10.470Z,9.35
2023-04-27T12:20:37.444Z,9.40
2023-04-27T12:23:04.313Z,9.41
2023-04-27T12:25:31.322Z,9.41
2023-04-27T12:27:58.162Z,9.40
2023-04-27T12:30:25.223Z,9.38
2023-04-27T12:32:52.093Z,9.38
2023-04-27T12:35:18.982Z,9.42
2023-04-27T12:37:46.128Z,9.48
2023-04-27T12:40:13.020Z,9.53
2023-04-27T12:42:40.111Z,9.57
2023-04-27T12:45:07.507Z,9.61
2023-04-27T12:50:05.931Z,9.68
2023-04-27T12:52:32.776Z,9.73
2023-04-27T12:54:59.888Z,9.76
2023-04-27T12:57:26.857Z,9.80
2023-04-27T12:59:53.767Z,9.85
2023-04-27T13:02:20.818Z,9.92
2023-04-27T13:04:48.062Z,9.96
2023-04-27T13:07:15.215Z,9.98
2023-04-27T13:09:42.132Z,9.94
2023-04-27T13:12:09.048Z,9.86
2023-04-27T13:14:35.918Z,9.75
2023-04-27T13:17:02.823Z,9.65
2023-04-27T13:19:29.832Z,9.61
2023-04-27T13:21:56.698Z,9.59
2023-04-27T13:24:24.703Z,9.58
2023-04-27T13:26:51.660Z,9.59
2023-04-27T13:29:18.510Z,9.57
2023-04-27T13:31:45.646Z,9.58
2023-04-27T13:34:12.725Z,9.63
2023-04-27T13:36:39.946Z,9.69
2023-04-27T13:39:07.818Z,9.74
2023-04-27T13:41:35.259Z,9.80
2023-04-27T13:44:02.386Z,9.91
2023-04-27T13:46:29.627Z,10.03
2023-04-27T13:48:57.195Z,10.12
2023-04-27T13:51:25.137Z,10.16
2023-04-27T13:53:51.986Z,10.16
2023-04-27T13:56:18.804Z,10.16
2023-04-27T13:58:46.496Z,10.15
2023-04-27T14:01:13.476Z,10.10
2023-04-27T14:03:43.342Z,10.00
2023-04-27T14:06:10.604Z,9.94
2023-04-27T14:08:37.773Z,9.89
2023-04-27T14:11:05.894Z,9.85
2023-04-27T14:13:32.823Z,9.81
2023-04-27T14:15:59.734Z,9.78
2023-04-27T14:18:32.166Z,9.78
2023-04-27T14:20:59.701Z,9.79
2023-04-27T14:23:26.698Z,9.81
2023-04-27T14:25:53.697Z,9.79
2023-04-27T14:28:20.595Z,9.82
2023-04-27T14:30:47.507Z,9.89
2023-04-27T14:33:14.357Z,10.00
2023-04-27T14:35:41.264Z,10.13
2023-04-27T14:39:14.037Z,10.30
2023-04-27T14:41:41.279Z,10.35
2023-04-27T14:44:08.463Z,10.34
2023-04-27T14:46:35.552Z,10.26
2023-04-27T14:49:02.557Z,10.18
2023-04-27T14:51:29.568Z,10.10
2023-04-27T14:53:56.501Z,10.00
2023-04-27T14:56:24.359Z,9.87
2023-04-27T14:58:51.932Z,9.80
2023-04-27T15:01:18.967Z,9.78
2023-04-27T15:03:46.253Z,9.79
2023-04-27T15:06:13.975Z,9.80
2023-04-27T15:08:40.828Z,9.80
2023-04-27T15:11:07.915Z,9.77
2023-04-27T15:13:34.920Z,9.75
2023-04-27T15:16:02.387Z,9.74
2023-04-27T15:18:29.408Z,9.73
2023-04-27T15:20:56.979Z,9.72
2023-04-27T15:23:24.338Z,9.71
2023-04-27T15:25:52.090Z,9.73
2023-04-27T15:28:19.208Z,9.77
2023-04-27T15:30:46.570Z,9.82
2023-04-27T15:33:14.216Z,9.87
2023-04-27T15:35:43.065Z,9.92
2023-04-27T15:38:12.719Z,9.96
2023-04-27T15:40:40.173Z,9.95
2023-04-27T15:43:07.473Z,9.93
2023-04-27T15:45:34.883Z,9.90
2023-04-27T15:48:02.268Z,9.88
2023-04-27T15:50:30.425Z,9.87
2023-04-27T15:52:57.315Z,9.84
2023-04-27T15:55:24.812Z,9.82
2023-04-27T15:57:53.647Z,9.80
2023-04-27T16:00:22.516Z,9.78
2023-04-27T16:02:51.186Z,9.75
2023-04-27T16:05:18.741Z,9.74
2023-04-27T16:07:45.902Z,9.71
2023-04-27T16:10:13.371Z,9.66
2023-04-27T16:12:40.637Z,9.62
2023-04-27T16:15:10.965Z,9.60
2023-04-27T16:17:41.138Z,9.57
2023-04-27T16:20:10.944Z,9.55
2023-04-27T16:22:38.167Z,9.50
2023-04-27T16:25:10.523Z,9.47
2023-04-27T16:27:39.898Z,9.45
2023-04-27T16:30:10.923Z,9.45
2023-04-27T16:32:37.914Z,9.44
2023-04-27T16:35:05.148Z,9.43
2023-04-27T16:37:32.851Z,9.40
2023-04-27T16:40:02.008Z,9.39
2023-04-27T16:42:29.231Z,9.37
2023-04-27T16:44:57.661Z,9.35
2023-04-27T16:47:29.776Z,9.31
2023-04-27T16:49:57.105Z,9.29
2023-04-27T16:52:25.590Z,9.26
2023-04-27T16:54:56.072Z,9.25
2023-04-27T16:57:24.168Z,9.22
2023-04-27T16:59:52.085Z,9.19
2023-04-27T17:02:25.198Z,9.15
2023-04-27T17:04:54.525Z,9.12
2023-04-27T17:07:28.527Z,9.08
2023-04-27T17:09:56.228Z,9.05
2023-04-27T17:12:23.087Z,9.01
2023-04-27T17:14:50.239Z,8.96
2023-04-27T17:17:18.049Z,8.92
2023-04-27T17:19:45.076Z,8.89
2023-04-27T17:22:13.415Z,8.85
2023-04-27T17:24:40.559Z,8.81
2023-04-27T17:27:08.448Z,8.77
2023-04-27T17:29:38.067Z,8.74
2023-04-27T17:32:07.188Z,8.71
2023-04-27T17:34:35.597Z,8.69
2023-04-27T17:37:02.719Z,8.67
2023-04-27T17:39:31.999Z,8.65
2023-04-27T17:42:00.654Z,8.62
2023-04-27T17:44:27.833Z,8.60
2023-04-27T17:46:54.951Z,8.58
2023-04-27T17:49:22.689Z,8.56
2023-04-27T17:51:51.208Z,8.56
2023-04-27T17:54:18.117Z,8.56
2023-04-27T17:56:54.945Z,8.56
2023-04-27T17:59:22.284Z,8.54
2023-04-27T18:01:49.122Z,8.53
2023-04-27T18:04:16.321Z,8.53
2023-04-27T18:06:43.339Z,8.51
2023-04-27T18:09:11.770Z,8.49
2023-04-27T18:11:38.894Z,8.47
2023-04-27T18:14:07.094Z,8.45
2023-04-27T18:16:34.135Z,8.44
2023-04-27T18:19:02.566Z,8.42
2023-04-27T18:21:31.137Z,8.41
2023-04-27T18:23:58.368Z,8.41
2023-04-27T18:26:26.503Z,8.41
2023-04-27T18:28:53.795Z,8.41
2023-04-27T18:31:23.288Z,8.40
2023-04-27T18:33:50.185Z,8.38
2023-04-27T18:36:17.226Z,8.37
2023-04-27T18:38:44.195Z,8.37
2023-04-27T18:41:11.302Z,8.35
2023-04-27T18:43:38.202Z,8.34
2023-04-27T18:46:05.248Z,8.33
2023-04-27T18:48:32.567Z,8.32
2023-04-27T18:50:59.541Z,8.30
2023-04-27T18:53:27.101Z,8.28
2023-04-27T18:55:54.103Z,8.26
2023-04-27T18:58:21.081Z,8.26
2023-04-27T19:00:47.966Z,8.25
2023-04-27T19:03:15.191Z,8.23
2023-04-27T19:05:45.369Z,8.21
2023-04-27T19:08:12.411Z,8.19
2023-04-27T19:10:41.686Z,8.19
2023-04-27T19:13:11.187Z,8.17
2023-04-27T19:15:41.385Z,8.17
2023-04-27T19:18:10.954Z,8.16
2023-04-27T19:20:39.448Z,8.17
2023-04-27T19:23:08.019Z,8.15
2023-04-27T19:25:35.237Z,8.14
2023-04-27T19:28:02.174Z,8.14
2023-04-27T19:30:29.034Z,8.15
2023-04-27T19:32:56.230Z,8.13
2023-04-27T19:35:24.023Z,8.13
2023-04-27T19:37:51.185Z,8.12
2023-04-27T19:40:18.302Z,8.10
2023-04-27T19:42:45.588Z,8.08
2023-04-27T19:45:15.508Z,8.05
2023-04-27T19:47:42.387Z,8.02
2023-04-27T19:50:09.711Z,8.01
2023-04-27T19:52:38.923Z,7.99
2023-04-27T19:55:06.302Z,7.99
2023-04-27T19:57:33.498Z,7.98
2023-04-27T20:00:02.679Z,7.97
2023-04-27T20:02:40.053Z,7.97
2023-04-27T20:05:08.232Z,7.98
2023-04-27T20:07:35.283Z,7.97
2023-04-27T20:10:03.186Z,7.96
2023-04-27T20:15:02.306Z,7.94
2023-04-27T20:17:29.369Z,7.93
2023-04-27T20:19:56.594Z,7.94
2023-04-27T20:22:23.687Z,7.93
2023-04-27T20:24:50.703Z,7.92
2023-04-27T20:27:17.680Z,7.91
2023-04-27T20:29:46.568Z,7.90
2023-04-27T20:32:13.362Z,7.89
2023-04-27T20:34:40.215Z,7.89
2023-04-27T20:37:07.613Z,7.88
2023-04-27T20:39:35.145Z,7.86
2023-04-27T20:42:02.250Z,7.83
2023-04-27T20:44:29.244Z,7.81
2023-04-27T20:46:56.144Z,7.80
2023-04-27T20:49:32.048Z,7.79
2023-04-27T20:52:02.386Z,7.78
2023-04-27T20:54:32.845Z,7.78
2023-04-27T20:57:03.071Z,7.78
2023-04-27T20:59:30.004Z,7.77
2023-04-27T21:01:57.058Z,7.76
2023-04-27T21:04:23.997Z,7.76
2023-04-27T21:07:51.864Z,7.79
2023-04-27T21:10:18.821Z,7.76
2023-04-27T21:12:46.796Z,7.75
2023-04-27T21:15:13.811Z,7.73
2023-04-27T21:17:40.720Z,7.72
2023-04-27T21:20:09.911Z,7.72
2023-04-27T21:22:37.185Z,7.73
2023-04-27T21:25:04.916Z,7.73
2023-04-27T21:27:31.865Z,7.73
2023-04-27T21:29:59.026Z,7.73
2023-04-27T21:32:26.041Z,7.72
2023-04-27T21:34:52.989Z,7.70
2023-04-27T21:37:20.066Z,7.68
2023-04-27T21:39:46.858Z,7.66
2023-04-27T21:42:13.947Z,7.65
2023-04-27T21:44:41.046Z,7.64
2023-04-27T21:47:07.957Z,7.63
2023-04-27T21:49:34.879Z,7.64
2023-04-27T21:52:01.780Z,7.63
2023-04-27T21:54:28.686Z,7.63
2023-04-27T21:56:55.570Z,7.63
2023-04-27T21:59:22.526Z,7.63
2023-04-27T22:01:49.459Z,7.60
2023-04-27T22:04:16.863Z,7.58
2023-04-27T22:06:44.820Z,7.57
2023-04-27T22:09:12.360Z,7.55
2023-04-27T22:11:39.425Z,7.53
2023-04-27T22:14:06.450Z,7.51
2023-04-27T22:16:33.376Z,7.50
2023-04-27T22:19:01.220Z,7.48
2023-04-27T22:21:28.943Z,7.48
2023-04-27T22:23:55.853Z,7.47
2023-04-27T22:26:22.881Z,7.45
2023-04-27T22:28:49.740Z,7.41
2023-04-27T22:31:16.883Z,7.41
2023-04-27T22:33:43.797Z,7.41
2023-04-27T22:36:10.680Z,7.39
2023-04-27T22:38:37.599Z,7.37
2023-04-27T22:41:04.612Z,7.36
2023-04-27T22:43:31.454Z,7.33
2023-04-27T22:45:58.294Z,7.31
2023-04-27T22:48:25.509Z,7.28
2023-04-27T22:50:52.523Z,7.24
2023-04-27T22:53:19.629Z,7.21
2023-04-27T22:55:46.849Z,7.18
2023-04-27T22:58:13.673Z,7.14
2023-04-27T23:00:40.538Z,7.10
2023-04-27T23:03:07.789Z,7.07
2023-04-27T23:05:34.669Z,7.02
2023-04-27T23:08:01.578Z,6.99
2023-04-27T23:10:31.241Z,6.94
2023-04-27T23:12:58.471Z,6.90
2023-04-27T23:15:25.373Z,6.87
2023-04-27T23:17:52.696Z,6.85
2023-04-27T23:20:27.989Z,6.83
2023-04-27T23:22:56.274Z,6.81
2023-04-27T23:25:23.350Z,6.80
2023-04-27T23:27:52.118Z,6.78
2023-04-27T23:30:20.558Z,6.77
2023-04-27T23:32:47.419Z,6.77
2023-04-27T23:35:14.248Z,6.75
2023-04-27T23:37:41.126Z,6.74
2023-04-27T23:40:08.632Z,6.73
2023-04-27T23:42:35.606Z,6.71
2023-04-27T23:45:04.217Z,6.70
2023-04-27T23:47:34.069Z,6.71
2023-04-27T23:50:02.380Z,6.72
2023-04-27T23:52:29.547Z,6.73
2023-04-27T23:54:57.849Z,6.74
2023-04-27T23:57:24.682Z,6.75
2023-04-27T23:59:51.561Z,6.76
